createdAt,value
2022-11-18T00:01:17.007Z,60.50
2022-11-18T00:03:44.929Z,60.60
2022-11-18T00:06:18.001Z,60.80
2022-11-18T00:11:37.812Z,60.90
2022-11-18T00:14:22.696Z,60.80
2022-11-18T00:16:56.754Z,59.00
2022-11-18T00:19:29.023Z,73.80
2022-11-18T00:24:24.117Z,59.70
2022-11-18T00:34:16.119Z,60.90
2022-11-18T00:36:44.351Z,70.50
2022-11-18T00:39:13.195Z,60.80
2022-11-18T00:46:55.242Z,61.20
2022-11-18T00:51:49.607Z,76.50
2022-11-18T01:16:41.357Z,75.10
2022-11-18T01:28:57.831Z,65.70
2022-11-18T01:33:52.694Z,75.80
2022-11-18T01:36:25.408Z,60.50
2022-11-18T01:41:22.416Z,62.20
2022-11-18T01:48:46.741Z,62.40
2022-11-18T01:51:17.992Z,62.40
2022-11-18T01:53:54.045Z,64.40
2022-11-18T01:56:30.508Z,60.40
2022-11-18T01:59:03.185Z,62.40
2022-11-18T02:08:52.651Z,78.50
2022-11-18T02:14:08.939Z,62.70
2022-11-18T02:17:20.433Z,60.70
2022-11-18T02:22:52.294Z,60.70
2022-11-18T02:25:47.953Z,60.50
2022-11-18T02:28:37.095Z,61.00
2022-11-18T02:31:57.444Z,78.90
2022-11-18T02:34:40.134Z,61.10
2022-11-18T02:37:18.086Z,74.70
2022-11-18T02:39:54.492Z,62.40
2022-11-18T02:42:22.901Z,62.90
2022-11-18T02:44:56.724Z,63.40
2022-11-18T02:47:26.646Z,63.20
2022-11-18T02:49:58.753Z,73.80
2022-11-18T02:52:27.237Z,62.90
2022-11-18T02:54:55.637Z,62.80
2022-11-18T02:57:25.217Z,62.80
2022-11-18T03:02:20.251Z,62.80
2022-11-18T03:07:27.647Z,60.90
2022-11-18T03:09:55.263Z,63.30
2022-11-18T03:12:32.386Z,61.20
2022-11-18T03:15:12.149Z,70.50
2022-11-18T03:18:07.767Z,77.80
2022-11-18T03:20:43.252Z,63.00
2022-11-18T03:23:18.300Z,78.90
2022-11-18T03:25:50.558Z,75.00
2022-11-18T03:28:31.020Z,78.50
2022-11-18T03:31:33.745Z,61.20
2022-11-18T03:34:19.329Z,63.10
2022-11-18T03:36:51.948Z,63.20
2022-11-18T03:39:22.133Z,79.40
2022-11-18T03:42:32.590Z,60.80
2022-11-18T03:45:31.249Z,63.20
2022-11-18T03:48:12.729Z,75.20
2022-11-18T03:50:53.670Z,79.00
2022-11-18T03:53:23.051Z,69.20
2022-11-18T03:55:55.334Z,79.40
2022-11-18T03:58:33.941Z,79.60
2022-11-18T04:01:16.288Z,61.40
2022-11-18T04:03:44.126Z,62.60
2022-11-18T04:06:27.157Z,60.90
2022-11-18T04:08:59.422Z,63.50
2022-11-18T04:11:54.881Z,63.50
2022-11-18T04:16:53.335Z,80.30
2022-11-18T04:21:51.436Z,73.10
2022-11-18T04:46:44.118Z,64.40
2022-11-18T04:49:13.048Z,64.00
2022-11-18T04:51:43.458Z,80.00
2022-11-18T05:01:35.861Z,71.20
2022-11-18T05:04:04.104Z,80.60
2022-11-18T05:06:32.162Z,64.30
2022-11-18T05:16:41.293Z,79.60
2022-11-18T05:24:04.517Z,80.10
2022-11-18T05:36:21.513Z,65.30
2022-11-18T05:41:35.478Z,66.20
2022-11-18T05:44:03.595Z,64.90
2022-11-18T05:46:31.533Z,80.90
2022-11-18T05:53:55.052Z,63.90
2022-11-18T05:56:43.199Z,64.10
2022-11-18T06:01:46.262Z,65.60
2022-11-18T06:04:21.664Z,81.50
2022-11-18T06:06:51.722Z,64.90
2022-11-18T06:09:23.266Z,64.90
2022-11-18T06:11:54.456Z,65.10
2022-11-18T06:14:27.984Z,65.10
2022-11-18T06:17:00.689Z,64.90
2022-11-18T06:29:22.935Z,67.70
2022-11-18T06:34:20.615Z,81.50
2022-11-18T06:41:42.814Z,80.40
2022-11-18T06:44:12.242Z,65.40
2022-11-18T06:46:57.532Z,82.20
2022-11-18T06:49:25.565Z,81.00
2022-11-18T07:06:37.551Z,77.40
2022-11-18T07:09:07.074Z,65.50
2022-11-18T07:18:57.132Z,64.30
2022-11-18T07:21:26.966Z,65.70
2022-11-18T07:31:21.125Z,81.60
2022-11-18T07:33:48.510Z,80.60
2022-11-18T07:36:20.858Z,69.50
2022-11-18T07:41:21.115Z,65.20
2022-11-18T07:43:50.646Z,65.10
2022-11-18T07:46:28.350Z,63.20
2022-11-18T07:48:57.340Z,65.00
2022-11-18T07:51:26.731Z,64.90
2022-11-18T07:56:21.881Z,77.40
2022-11-18T07:58:53.543Z,64.90
2022-11-18T08:01:23.178Z,64.40
2022-11-18T08:06:19.022Z,64.20
2022-11-18T08:11:20.630Z,63.90
2022-11-18T08:13:49.543Z,80.00
2022-11-18T08:16:18.637Z,63.40
2022-11-18T08:18:46.200Z,62.30
2022-11-18T08:26:14.662Z,60.50
2022-11-18T08:28:44.842Z,59.80
2022-11-18T08:31:20.659Z,60.20
2022-11-18T08:33:48.183Z,61.20
2022-11-18T08:36:17.445Z,62.30
2022-11-18T08:41:17.607Z,59.50
2022-11-18T08:51:11.900Z,61.50
2022-11-18T08:56:06.646Z,59.80
2022-11-18T09:01:06.611Z,59.80
2022-11-18T09:03:33.914Z,58.10
2022-11-18T09:06:12.953Z,58.10
2022-11-18T09:11:12.991Z,59.50
2022-11-18T09:14:04.344Z,58.00
2022-11-18T09:16:29.486Z,58.00
2022-11-18T09:18:57.893Z,58.00
2022-11-18T09:26:23.694Z,57.50
2022-11-18T09:28:53.723Z,56.90
2022-11-18T09:36:18.352Z,57.70
2022-11-18T09:41:45.364Z,55.40
2022-11-18T09:47:08.022Z,54.60
2022-11-18T09:49:37.995Z,56.50
2022-11-18T09:52:15.722Z,72.30
2022-11-18T09:54:42.706Z,64.90
2022-11-18T09:57:16.711Z,54.70
2022-11-18T09:59:44.879Z,55.00
2022-11-18T10:02:35.335Z,54.30
2022-11-18T10:05:16.817Z,56.50
2022-11-18T10:08:21.086Z,54.40
2022-11-18T10:11:02.205Z,54.00
2022-11-18T10:14:06.604Z,54.40
2022-11-18T10:19:35.723Z,72.80
2022-11-18T10:22:31.033Z,54.20
2022-11-18T10:25:00.840Z,55.30
2022-11-18T10:27:37.678Z,55.20
2022-11-18T10:30:15.673Z,53.50
2022-11-18T10:33:03.628Z,56.60
2022-11-18T10:38:16.078Z,56.30
2022-11-18T10:41:02.754Z,51.60
2022-11-18T10:43:50.739Z,51.90
2022-11-18T10:46:31.042Z,52.00
2022-11-18T10:49:13.015Z,52.40
2022-11-18T10:51:44.454Z,52.60
2022-11-18T10:54:22.629Z,52.10
2022-11-18T11:02:35.062Z,52.10
2022-11-18T11:05:04.959Z,53.90
2022-11-18T11:12:30.968Z,53.40
2022-11-18T11:15:03.085Z,53.20
2022-11-18T11:30:23.677Z,45.90
2022-11-18T11:33:10.081Z,63.70
2022-11-18T11:36:10.946Z,45.70
2022-11-18T11:39:04.671Z,45.60
2022-11-18T11:41:49.608Z,47.70
2022-11-18T11:44:59.930Z,45.60
2022-11-18T11:47:47.910Z,46.90
2022-11-18T11:50:30.126Z,47.60
2022-11-18T11:53:23.495Z,45.90
2022-11-18T11:56:08.552Z,61.70
2022-11-18T12:01:19.769Z,48.30
2022-11-18T12:03:56.719Z,45.80
2022-11-18T12:09:12.547Z,41.80
2022-11-18T12:12:04.963Z,43.50
2022-11-18T12:14:50.802Z,43.30
2022-11-18T12:17:27.284Z,59.60
2022-11-18T12:27:36.483Z,44.80
2022-11-18T12:30:04.453Z,62.20
2022-11-18T12:32:42.725Z,44.40
2022-11-18T12:35:13.123Z,45.30
2022-11-18T12:37:43.819Z,45.40
2022-11-18T12:40:30.262Z,47.60
2022-11-18T12:48:36.937Z,47.00
2022-11-18T12:51:15.629Z,46.60
2022-11-18T12:53:44.768Z,47.60
2022-11-18T12:56:19.136Z,48.30
2022-11-18T12:58:53.733Z,46.10
2022-11-18T13:01:32.023Z,46.60
2022-11-18T13:04:16.284Z,44.50
2022-11-18T13:06:44.819Z,45.90
2022-11-18T13:09:19.205Z,44.40
2022-11-18T13:12:02.422Z,43.90
2022-11-18T13:14:59.932Z,38.20
2022-11-18T13:17:52.043Z,38.80
2022-11-18T13:20:35.505Z,39.70
2022-11-18T13:23:38.487Z,42.20
2022-11-18T13:26:19.405Z,42.90
2022-11-18T13:29:05.030Z,41.20
2022-11-18T13:32:00.880Z,40.90
2022-11-18T13:34:30.057Z,41.30
2022-11-18T13:37:00.022Z,59.30
2022-11-18T13:39:29.862Z,43.20
2022-11-18T13:42:05.136Z,41.60
2022-11-18T13:44:37.329Z,44.10
2022-11-18T13:47:26.107Z,42.30
2022-11-18T13:50:15.819Z,44.00
2022-11-18T13:52:55.575Z,60.90
2022-11-18T13:57:52.396Z,61.10
2022-11-18T14:00:28.518Z,46.00
2022-11-18T14:03:03.904Z,45.60
2022-11-18T14:08:02.721Z,46.50
2022-11-18T14:10:41.193Z,44.80
2022-11-18T14:13:26.572Z,45.00
2022-11-18T14:16:23.749Z,45.60
2022-11-18T14:18:51.874Z,48.40
2022-11-18T14:21:34.431Z,46.10
2022-11-18T14:24:02.332Z,46.60
2022-11-18T14:29:02.408Z,47.70
2022-11-18T14:31:31.117Z,48.00
2022-11-18T14:34:23.574Z,46.70
2022-11-18T14:36:51.323Z,54.20
2022-11-18T14:39:31.628Z,47.80
2022-11-18T14:41:59.393Z,48.00
2022-11-18T14:44:27.858Z,49.20
2022-11-18T14:47:00.362Z,47.80
2022-11-18T14:49:29.963Z,48.80
2022-11-18T14:54:27.165Z,49.70
2022-11-18T14:56:57.340Z,49.40
2022-11-18T14:59:24.689Z,48.90
2022-11-18T15:21:33.930Z,67.90
2022-11-18T15:26:43.427Z,51.30
2022-11-18T15:29:19.766Z,50.70
2022-11-18T15:39:10.077Z,52.70
2022-11-18T15:41:38.475Z,52.90
2022-11-18T15:51:29.756Z,53.10
2022-11-18T15:58:59.093Z,51.60
2022-11-18T16:01:28.786Z,53.70
2022-11-18T16:03:56.139Z,55.70
2022-11-18T16:06:24.297Z,53.30
2022-11-18T16:14:14.468Z,69.50
2022-11-18T16:16:43.055Z,54.20
2022-11-18T16:19:12.555Z,54.20
2022-11-18T16:21:42.610Z,55.10
2022-11-18T16:24:12.663Z,56.50
2022-11-18T16:29:07.803Z,53.40
2022-11-18T16:31:41.338Z,60.10
2022-11-18T16:34:27.821Z,54.60
2022-11-18T16:36:57.512Z,54.40
2022-11-18T16:39:27.045Z,58.80
2022-11-18T16:42:06.689Z,55.40
2022-11-18T16:51:57.671Z,55.50
2022-11-18T16:54:25.615Z,55.60
2022-11-18T16:56:54.281Z,55.40
2022-11-18T16:59:23.731Z,55.20
2022-11-18T17:01:52.142Z,55.70
2022-11-18T17:04:19.814Z,54.70
2022-11-18T17:09:16.726Z,55.70
2022-11-18T17:29:01.053Z,71.70
2022-11-18T17:31:27.870Z,71.90
2022-11-18T17:33:56.454Z,56.50
2022-11-18T17:36:25.929Z,56.50
2022-11-18T17:38:55.481Z,56.80
2022-11-18T17:41:43.811Z,56.50
2022-11-18T17:44:12.544Z,56.80
2022-11-18T17:49:18.143Z,56.80
2022-11-18T18:06:37.340Z,73.30
2022-11-18T18:16:50.436Z,57.70
2022-11-18T18:19:19.763Z,72.20
2022-11-18T18:26:44.529Z,73.10
2022-11-18T18:29:12.071Z,73.20
2022-11-18T18:41:30.327Z,57.50
2022-11-18T18:46:30.213Z,58.70
2022-11-18T18:49:09.481Z,56.50
2022-11-18T18:51:37.899Z,58.70
2022-11-18T18:54:05.259Z,75.10
2022-11-18T18:59:00.581Z,73.00
2022-11-18T19:04:01.002Z,58.80
2022-11-18T19:19:58.893Z,58.70
2022-11-18T19:22:28.381Z,58.10
2022-11-18T19:24:55.880Z,69.30
2022-11-18T20:01:46.059Z,69.70
2022-11-18T20:04:12.925Z,76.20
2022-11-18T20:09:08.888Z,60.10
2022-11-18T20:19:02.909Z,60.40
2022-11-18T20:24:02.701Z,60.90
2022-11-18T20:26:35.000Z,58.50
2022-11-18T20:29:02.188Z,77.20
2022-11-18T20:33:57.159Z,60.30
2022-11-18T20:36:31.218Z,60.40
2022-11-18T20:39:00.392Z,60.90
2022-11-18T20:41:30.316Z,59.50
2022-11-18T20:46:24.795Z,77.00
2022-11-18T20:51:21.525Z,61.00
2022-11-18T20:56:18.379Z,61.00
2022-11-18T21:01:15.296Z,61.10
2022-11-18T21:03:43.644Z,60.80
2022-11-18T21:06:14.376Z,61.20
2022-11-18T21:08:42.814Z,61.30
2022-11-18T21:11:12.791Z,61.40
2022-11-18T21:16:27.388Z,58.60
2022-11-18T21:18:54.817Z,77.80
2022-11-18T21:24:08.369Z,66.10
2022-11-18T21:26:36.603Z,61.20
2022-11-18T21:29:07.208Z,61.10
2022-11-18T21:34:01.286Z,76.00
2022-11-18T21:36:29.431Z,59.90
2022-11-18T21:39:00.107Z,59.20
2022-11-18T21:41:28.232Z,61.10
2022-11-18T21:46:35.663Z,61.20
2022-11-18T21:49:03.425Z,59.30
2022-11-18T21:54:01.520Z,61.00
2022-11-18T21:56:30.586Z,61.20
2022-11-18T21:58:59.998Z,61.00
2022-11-18T22:01:31.897Z,61.60
2022-11-18T22:04:00.001Z,61.10
2022-11-18T22:06:33.660Z,61.00
2022-11-18T22:09:02.161Z,60.90
2022-11-18T22:16:25.486Z,61.10
2022-11-18T22:18:59.043Z,61.30
2022-11-18T22:23:59.271Z,61.10
2022-11-18T22:28:54.903Z,60.80
2022-11-18T22:31:23.048Z,61.10
2022-11-18T22:33:51.426Z,61.30
2022-11-18T22:36:20.577Z,61.20
2022-11-18T22:41:38.635Z,59.10
2022-11-18T22:44:08.407Z,61.00
2022-11-18T22:46:40.296Z,61.00
2022-11-18T22:49:08.424Z,60.80
2022-11-18T22:51:37.060Z,61.30
2022-11-18T22:54:36.332Z,73.10
2022-11-18T22:56:53.898Z,60.60
2022-11-18T23:01:51.162Z,61.30
2022-11-18T23:24:18.116Z,61.10
2022-11-18T23:26:45.930Z,59.90
2022-11-18T23:29:14.522Z,60.80
2022-11-18T23:31:43.116Z,60.70
2022-11-18T23:34:12.559Z,60.90
2022-11-18T23:51:24.848Z,61.50
2022-11-18T23:53:54.868Z,64.30
2022-11-18T23:56:24.323Z,61.20
2022-11-18T23:58:53.610Z,60.80
